sensor_id;sensor_type;location;lat;lon;timestamp;P1;durP1;ratioP1;P2;durP2;ratioP2
14890;SDS011;7537;48.014;11.590;2023-01-23T00:01:39;35.57;;;20.15;;
14890;SDS011;7537;48.014;11.590;2023-01-23T00:07:07;37.92;;;19.78;;
14890;SDS011;7537;48.014;11.590;2023-01-23T00:12:37;36.14;;;18.73;;
14890;SDS011;7537;48.014;11.590;2023-01-23T00:18:10;35.85;;;19.14;;
14890;SDS011;7537;48.014;11.590;2023-01-23T00:23:37;32.69;;;18.54;;
14890;SDS011;7537;48.014;11.590;2023-01-23T00:29:07;31.07;;;18.12;;
14890;SDS011;7537;48.014;11.590;2023-01-23T00:34:35;30.42;;;18.48;;
14890;SDS011;7537;48.014;11.590;2023-01-23T00:40:04;34.91;;;19.64;;
14890;SDS011;7537;48.014;11.590;2023-01-23T00:45:32;33.40;;;17.69;;
14890;SDS011;7537;48.014;11.590;2023-01-23T00:51:00;34.67;;;19.00;;
14890;SDS011;7537;48.014;11.590;2023-01-23T00:56:27;33.75;;;18.39;;
14890;SDS011;7537;48.014;11.590;2023-01-23T01:01:54;29.95;;;18.41;;
14890;SDS011;7537;48.014;11.590;2023-01-23T01:07:22;34.65;;;20.15;;
14890;SDS011;7537;48.014;11.590;2023-01-23T01:12:49;33.57;;;19.10;;
14890;SDS011;7537;48.014;11.590;2023-01-23T01:18:22;36.17;;;20.59;;
14890;SDS011;7537;48.014;11.590;2023-01-23T01:23:49;35.83;;;20.86;;
14890;SDS011;7537;48.014;11.590;2023-01-23T01:29:17;37.37;;;20.92;;
14890;SDS011;7537;48.014;11.590;2023-01-23T01:34:45;38.96;;;20.48;;
14890;SDS011;7537;48.014;11.590;2023-01-23T01:40:13;38.43;;;21.33;;
14890;SDS011;7537;48.014;11.590;2023-01-23T01:51:44;34.36;;;19.37;;
14890;SDS011;7537;48.014;11.590;2023-01-23T01:57:13;34.39;;;19.96;;
14890;SDS011;7537;48.014;11.590;2023-01-23T02:02:42;41.28;;;21.30;;
14890;SDS011;7537;48.014;11.590;2023-01-23T02:08:11;40.17;;;21.72;;
14890;SDS011;7537;48.014;11.590;2023-01-23T02:13:39;33.67;;;20.80;;
14890;SDS011;7537;48.014;11.590;2023-01-23T02:19:13;33.17;;;21.26;;
14890;SDS011;7537;48.014;11.590;2023-01-23T02:24:44;41.37;;;22.91;;
14890;SDS011;7537;48.014;11.590;2023-01-23T02:30:15;41.78;;;22.52;;
14890;SDS011;7537;48.014;11.590;2023-01-23T02:35:42;37.14;;;22.49;;
14890;SDS011;7537;48.014;11.590;2023-01-23T02:41:10;43.22;;;21.86;;
14890;SDS011;7537;48.014;11.590;2023-01-23T02:48:43;34.84;;;20.61;;
14890;SDS011;7537;48.014;11.590;2023-01-23T02:54:10;34.78;;;20.57;;
14890;SDS011;7537;48.014;11.590;2023-01-23T02:59:39;30.03;;;19.43;;
14890;SDS011;7537;48.014;11.590;2023-01-23T03:05:07;34.27;;;19.61;;
14890;SDS011;7537;48.014;11.590;2023-01-23T03:10:34;32.32;;;20.01;;
14890;SDS011;7537;48.014;11.590;2023-01-23T03:16:02;34.22;;;20.89;;
14890;SDS011;7537;48.014;11.590;2023-01-23T03:21:29;34.00;;;18.85;;
14890;SDS011;7537;48.014;11.590;2023-01-23T03:26:57;33.63;;;20.08;;
14890;SDS011;7537;48.014;11.590;2023-01-23T03:32:26;33.63;;;19.99;;
14890;SDS011;7537;48.014;11.590;2023-01-23T03:37:53;32.33;;;20.03;;
14890;SDS011;7537;48.014;11.590;2023-01-23T03:43:21;34.44;;;18.92;;
14890;SDS011;7537;48.014;11.590;2023-01-23T03:48:52;32.98;;;19.42;;
14890;SDS011;7537;48.014;11.590;2023-01-23T03:54:20;30.96;;;19.04;;
14890;SDS011;7537;48.014;11.590;2023-01-23T03:59:47;32.24;;;18.63;;
14890;SDS011;7537;48.014;11.590;2023-01-23T04:05:16;31.33;;;19.28;;
14890;SDS011;7537;48.014;11.590;2023-01-23T04:10:43;27.87;;;18.36;;
14890;SDS011;7537;48.014;11.590;2023-01-23T04:16:11;30.95;;;18.57;;
14890;SDS011;7537;48.014;11.590;2023-01-23T04:21:38;35.18;;;19.95;;
14890;SDS011;7537;48.014;11.590;2023-01-23T04:27:06;29.63;;;17.78;;
14890;SDS011;7537;48.014;11.590;2023-01-23T04:32:33;34.21;;;17.72;;
14890;SDS011;7537;48.014;11.590;2023-01-23T04:38:02;33.82;;;18.04;;
14890;SDS011;7537;48.014;11.590;2023-01-23T04:43:29;26.28;;;16.92;;
14890;SDS011;7537;48.014;11.590;2023-01-23T04:49:00;29.91;;;18.37;;
14890;SDS011;7537;48.014;11.590;2023-01-23T04:54:27;30.11;;;17.61;;
14890;SDS011;7537;48.014;11.590;2023-01-23T04:59:55;31.42;;;16.69;;
14890;SDS011;7537;48.014;11.590;2023-01-23T05:05:22;31.35;;;19.26;;
14890;SDS011;7537;48.014;11.590;2023-01-23T05:10:51;29.01;;;18.16;;
14890;SDS011;7537;48.014;11.590;2023-01-23T05:16:19;32.49;;;19.49;;
14890;SDS011;7537;48.014;11.590;2023-01-23T05:21:47;26.80;;;16.57;;
14890;SDS011;7537;48.014;11.590;2023-01-23T05:27:14;32.81;;;19.02;;
14890;SDS011;7537;48.014;11.590;2023-01-23T05:32:42;28.89;;;18.36;;
14890;SDS011;7537;48.014;11.590;2023-01-23T05:38:09;27.45;;;17.30;;
14890;SDS011;7537;48.014;11.590;2023-01-23T05:43:39;33.01;;;17.96;;
14890;SDS011;7537;48.014;11.590;2023-01-23T05:49:10;31.18;;;19.72;;
14890;SDS011;7537;48.014;11.590;2023-01-23T05:54:37;30.80;;;19.16;;
14890;SDS011;7537;48.014;11.590;2023-01-23T06:00:07;27.27;;;18.04;;
14890;SDS011;7537;48.014;11.590;2023-01-23T06:05:35;29.50;;;17.92;;
14890;SDS011;7537;48.014;11.590;2023-01-23T06:11:03;29.23;;;18.88;;
14890;SDS011;7537;48.014;11.590;2023-01-23T06:16:33;34.41;;;19.23;;
14890;SDS011;7537;48.014;11.590;2023-01-23T06:22:00;32.98;;;18.92;;
14890;SDS011;7537;48.014;11.590;2023-01-23T06:27:27;28.66;;;17.48;;
14890;SDS011;7537;48.014;11.590;2023-01-23T06:32:55;34.21;;;18.60;;
14890;SDS011;7537;48.014;11.590;2023-01-23T06:38:23;36.40;;;19.65;;
14890;SDS011;7537;48.014;11.590;2023-01-23T06:43:50;31.56;;;20.32;;
14890;SDS011;7537;48.014;11.590;2023-01-23T06:49:27;35.41;;;20.16;;
14890;SDS011;7537;48.014;11.590;2023-01-23T06:54:55;29.95;;;19.68;;
14890;SDS011;7537;48.014;11.590;2023-01-23T07:00:22;31.44;;;19.80;;
14890;SDS011;7537;48.014;11.590;2023-01-23T07:05:50;30.45;;;19.57;;
14890;SDS011;7537;48.014;11.590;2023-01-23T07:11:17;33.29;;;20.41;;
14890;SDS011;7537;48.014;11.590;2023-01-23T07:16:45;31.74;;;21.26;;
14890;SDS011;7537;48.014;11.590;2023-01-23T07:22:16;31.86;;;19.33;;
14890;SDS011;7537;48.014;11.590;2023-01-23T07:27:44;36.07;;;22.02;;
14890;SDS011;7537;48.014;11.590;2023-01-23T07:33:12;38.97;;;22.81;;
14890;SDS011;7537;48.014;11.590;2023-01-23T07:38:40;38.09;;;22.35;;
14890;SDS011;7537;48.014;11.590;2023-01-23T07:44:07;36.98;;;21.87;;
14890;SDS011;7537;48.014;11.590;2023-01-23T07:49:48;40.87;;;21.13;;
14890;SDS011;7537;48.014;11.590;2023-01-23T07:55:17;58.21;;;26.34;;
14890;SDS011;7537;48.014;11.590;2023-01-23T08:00:44;60.68;;;28.25;;
14890;SDS011;7537;48.014;11.590;2023-01-23T08:06:11;74.79;;;29.53;;
14890;SDS011;7537;48.014;11.590;2023-01-23T08:11:39;63.40;;;29.11;;
14890;SDS011;7537;48.014;11.590;2023-01-23T08:17:06;76.97;;;29.11;;
14890;SDS011;7537;48.014;11.590;2023-01-23T08:22:34;92.05;;;33.52;;
14890;SDS011;7537;48.014;11.590;2023-01-23T08:28:03;80.11;;;31.83;;
14890;SDS011;7537;48.014;11.590;2023-01-23T08:33:30;72.80;;;24.87;;
14890;SDS011;7537;48.014;11.590;2023-01-23T08:38:57;102.20;;;27.42;;
14890;SDS011;7537;48.014;11.590;2023-01-23T08:44:25;92.57;;;37.36;;
14890;SDS011;7537;48.014;11.590;2023-01-23T08:49:56;109.09;;;32.98;;
14890;SDS011;7537;48.014;11.590;2023-01-23T08:55:23;99.13;;;34.73;;
14890;SDS011;7537;48.014;11.590;2023-01-23T09:00:52;111.24;;;35.21;;
14890;SDS011;7537;48.014;11.590;2023-01-23T09:06:20;77.97;;;33.49;;
14890;SDS011;7537;48.014;11.590;2023-01-23T09:11:47;87.08;;;33.02;;
14890;SDS011;7537;48.014;11.590;2023-01-23T09:17:15;81.26;;;32.97;;
14890;SDS011;7537;48.014;11.590;2023-01-23T09:22:42;82.66;;;32.54;;
14890;SDS011;7537;48.014;11.590;2023-01-23T09:28:09;81.43;;;33.69;;
14890;SDS011;7537;48.014;11.590;2023-01-23T09:33:38;67.51;;;29.43;;
14890;SDS011;7537;48.014;11.590;2023-01-23T09:39:06;68.12;;;29.70;;
14890;SDS011;7537;48.014;11.590;2023-01-23T09:44:34;64.51;;;29.17;;
14890;SDS011;7537;48.014;11.590;2023-01-23T09:50:11;73.39;;;31.36;;
14890;SDS011;7537;48.014;11.590;2023-01-23T09:55:41;52.25;;;24.99;;
14890;SDS011;7537;48.014;11.590;2023-01-23T10:01:11;59.26;;;27.98;;
14890;SDS011;7537;48.014;11.590;2023-01-23T10:06:47;64.89;;;29.36;;
14890;SDS011;7537;48.014;11.590;2023-01-23T10:12:21;53.31;;;25.86;;
14890;SDS011;7537;48.014;11.590;2023-01-23T10:17:52;64.93;;;31.06;;
14890;SDS011;7537;48.014;11.590;2023-01-23T10:23:29;60.09;;;29.41;;
14890;SDS011;7537;48.014;11.590;2023-01-23T10:28:58;64.92;;;31.64;;
14890;SDS011;7537;48.014;11.590;2023-01-23T10:34:31;68.50;;;30.14;;
14890;SDS011;7537;48.014;11.590;2023-01-23T10:40:06;68.65;;;32.03;;
14890;SDS011;7537;48.014;11.590;2023-01-23T10:45:34;66.46;;;31.38;;
14890;SDS011;7537;48.014;11.590;2023-01-23T10:51:22;57.16;;;31.18;;
14890;SDS011;7537;48.014;11.590;2023-01-23T10:56:54;67.62;;;31.19;;
14890;SDS011;7537;48.014;11.590;2023-01-23T11:02:26;65.33;;;30.50;;
14890;SDS011;7537;48.014;11.590;2023-01-23T11:07:53;60.47;;;29.34;;
14890;SDS011;7537;48.014;11.590;2023-01-23T11:13:26;61.96;;;29.62;;
14890;SDS011;7537;48.014;11.590;2023-01-23T11:18:54;59.33;;;30.24;;
14890;SDS011;7537;48.014;11.590;2023-01-23T11:24:27;60.60;;;28.93;;
14890;SDS011;7537;48.014;11.590;2023-01-23T11:35:56;65.42;;;30.39;;
14890;SDS011;7537;48.014;11.590;2023-01-23T11:41:27;63.27;;;30.14;;
14890;SDS011;7537;48.014;11.590;2023-01-23T11:47:00;57.86;;;29.96;;
14890;SDS011;7537;48.014;11.590;2023-01-23T11:52:34;53.89;;;28.11;;
14890;SDS011;7537;48.014;11.590;2023-01-23T11:58:11;56.71;;;29.64;;
14890;SDS011;7537;48.014;11.590;2023-01-23T12:03:48;58.73;;;31.88;;
14890;SDS011;7537;48.014;11.590;2023-01-23T12:09:20;55.07;;;29.89;;
14890;SDS011;7537;48.014;11.590;2023-01-23T12:14:50;50.79;;;29.14;;
14890;SDS011;7537;48.014;11.590;2023-01-23T12:20:23;43.01;;;25.80;;
14890;SDS011;7537;48.014;11.590;2023-01-23T12:25:54;51.75;;;26.55;;
14890;SDS011;7537;48.014;11.590;2023-01-23T12:31:30;46.24;;;27.52;;
14890;SDS011;7537;48.014;11.590;2023-01-23T12:37:08;51.02;;;28.68;;
14890;SDS011;7537;48.014;11.590;2023-01-23T12:42:41;49.38;;;26.52;;
14890;SDS011;7537;48.014;11.590;2023-01-23T12:48:11;55.58;;;27.90;;
14890;SDS011;7537;48.014;11.590;2023-01-23T12:53:45;48.24;;;26.96;;
14890;SDS011;7537;48.014;11.590;2023-01-23T12:59:16;50.66;;;27.61;;
14890;SDS011;7537;48.014;11.590;2023-01-23T13:05:01;61.06;;;28.92;;
14890;SDS011;7537;48.014;11.590;2023-01-23T13:10:32;53.31;;;28.74;;
14890;SDS011;7537;48.014;11.590;2023-01-23T13:16:03;51.60;;;26.34;;
14890;SDS011;7537;48.014;11.590;2023-01-23T13:21:31;48.44;;;26.48;;
14890;SDS011;7537;48.014;11.590;2023-01-23T13:27:01;52.76;;;29.02;;
14890;SDS011;7537;48.014;11.590;2023-01-23T13:32:53;56.41;;;26.40;;
14890;SDS011;7537;48.014;11.590;2023-01-23T13:38:28;49.69;;;28.91;;
14890;SDS011;7537;48.014;11.590;2023-01-23T13:44:02;52.03;;;28.32;;
14890;SDS011;7537;48.014;11.590;2023-01-23T13:49:34;53.69;;;29.39;;
14890;SDS011;7537;48.014;11.590;2023-01-23T13:55:16;48.97;;;27.59;;
14890;SDS011;7537;48.014;11.590;2023-01-23T14:00:48;56.99;;;28.87;;
14890;SDS011;7537;48.014;11.590;2023-01-23T14:06:17;49.56;;;27.68;;
14890;SDS011;7537;48.014;11.590;2023-01-23T14:11:44;52.94;;;30.13;;
14890;SDS011;7537;48.014;11.590;2023-01-23T14:17:13;40.98;;;26.35;;
14890;SDS011;7537;48.014;11.590;2023-01-23T14:22:40;53.51;;;26.59;;
14890;SDS011;7537;48.014;11.590;2023-01-23T14:28:13;46.31;;;26.65;;
14890;SDS011;7537;48.014;11.590;2023-01-23T14:33:43;40.33;;;25.27;;
14890;SDS011;7537;48.014;11.590;2023-01-23T14:39:13;38.23;;;26.51;;
14890;SDS011;7537;48.014;11.590;2023-01-23T14:44:42;48.73;;;26.29;;
14890;SDS011;7537;48.014;11.590;2023-01-23T14:50:14;39.66;;;26.56;;
14890;SDS011;7537;48.014;11.590;2023-01-23T14:55:46;44.93;;;27.02;;
14890;SDS011;7537;48.014;11.590;2023-01-23T15:01:14;49.11;;;25.95;;
14890;SDS011;7537;48.014;11.590;2023-01-23T15:06:48;46.29;;;26.11;;
14890;SDS011;7537;48.014;11.590;2023-01-23T15:12:16;42.06;;;25.01;;
14890;SDS011;7537;48.014;11.590;2023-01-23T15:17:44;42.19;;;25.58;;
14890;SDS011;7537;48.014;11.590;2023-01-23T15:23:17;42.69;;;25.74;;
14890;SDS011;7537;48.014;11.590;2023-01-23T15:28:48;38.42;;;22.40;;
14890;SDS011;7537;48.014;11.590;2023-01-23T15:34:20;36.58;;;23.52;;
14890;SDS011;7537;48.014;11.590;2023-01-23T15:39:49;24.17;;;14.85;;
14890;SDS011;7537;48.014;11.590;2023-01-23T15:45:18;26.92;;;17.49;;
14890;SDS011;7537;48.014;11.590;2023-01-23T15:50:45;31.24;;;19.24;;
14890;SDS011;7537;48.014;11.590;2023-01-23T15:56:18;29.53;;;19.58;;
14890;SDS011;7537;48.014;11.590;2023-01-23T16:01:51;30.35;;;19.49;;
14890;SDS011;7537;48.014;11.590;2023-01-23T16:07:23;34.68;;;20.83;;
14890;SDS011;7537;48.014;11.590;2023-01-23T16:12:53;31.93;;;19.07;;
14890;SDS011;7537;48.014;11.590;2023-01-23T16:18:20;37.91;;;21.71;;
14890;SDS011;7537;48.014;11.590;2023-01-23T16:23:48;44.23;;;22.61;;
14890;SDS011;7537;48.014;11.590;2023-01-23T16:29:20;37.67;;;21.58;;
14890;SDS011;7537;48.014;11.590;2023-01-23T16:34:49;46.08;;;24.74;;
14890;SDS011;7537;48.014;11.590;2023-01-23T16:40:18;47.18;;;24.83;;
14890;SDS011;7537;48.014;11.590;2023-01-23T16:45:45;43.44;;;25.74;;
14890;SDS011;7537;48.014;11.590;2023-01-23T16:51:16;26.48;;;15.52;;
14890;SDS011;7537;48.014;11.590;2023-01-23T16:56:48;46.79;;;24.80;;
14890;SDS011;7537;48.014;11.590;2023-01-23T17:02:17;44.08;;;24.72;;
14890;SDS011;7537;48.014;11.590;2023-01-23T17:07:46;41.39;;;22.72;;
14890;SDS011;7537;48.014;11.590;2023-01-23T17:13:13;42.50;;;23.54;;
14890;SDS011;7537;48.014;11.590;2023-01-23T17:18:42;43.69;;;24.23;;
14890;SDS011;7537;48.014;11.590;2023-01-23T17:24:11;37.84;;;22.68;;
14890;SDS011;7537;48.014;11.590;2023-01-23T17:29:40;39.77;;;21.16;;
14890;SDS011;7537;48.014;11.590;2023-01-23T17:35:10;42.04;;;23.03;;
14890;SDS011;7537;48.014;11.590;2023-01-23T17:40:43;39.16;;;20.29;;
14890;SDS011;7537;48.014;11.590;2023-01-23T17:46:14;31.06;;;16.05;;
14890;SDS011;7537;48.014;11.590;2023-01-23T17:51:46;42.98;;;22.04;;
14890;SDS011;7537;48.014;11.590;2023-01-23T17:57:19;39.48;;;25.84;;
14890;SDS011;7537;48.014;11.590;2023-01-23T18:02:47;50.44;;;29.28;;
14890;SDS011;7537;48.014;11.590;2023-01-23T18:08:16;38.52;;;18.00;;
14890;SDS011;7537;48.014;11.590;2023-01-23T18:13:47;39.84;;;24.22;;
14890;SDS011;7537;48.014;11.590;2023-01-23T18:19:17;42.50;;;25.92;;
14890;SDS011;7537;48.014;11.590;2023-01-23T18:24:46;52.56;;;30.46;;
14890;SDS011;7537;48.014;11.590;2023-01-23T18:30:25;40.89;;;21.83;;
14890;SDS011;7537;48.014;11.590;2023-01-23T18:36:05;44.83;;;25.46;;
14890;SDS011;7537;48.014;11.590;2023-01-23T18:41:34;40.16;;;22.23;;
14890;SDS011;7537;48.014;11.590;2023-01-23T18:47:04;34.55;;;18.50;;
14890;SDS011;7537;48.014;11.590;2023-01-23T18:52:37;47.51;;;27.96;;
14890;SDS011;7537;48.014;11.590;2023-01-23T18:58:17;27.09;;;16.19;;
14890;SDS011;7537;48.014;11.590;2023-01-23T19:03:50;56.60;;;29.84;;
14890;SDS011;7537;48.014;11.590;2023-01-23T19:09:20;43.92;;;24.26;;
14890;SDS011;7537;48.014;11.590;2023-01-23T19:14:52;48.96;;;24.98;;
14890;SDS011;7537;48.014;11.590;2023-01-23T19:20:25;50.42;;;24.84;;
14890;SDS011;7537;48.014;11.590;2023-01-23T19:25:55;53.19;;;28.87;;
14890;SDS011;7537;48.014;11.590;2023-01-23T19:31:24;55.74;;;28.42;;
14890;SDS011;7537;48.014;11.590;2023-01-23T19:36:53;57.55;;;29.47;;
14890;SDS011;7537;48.014;11.590;2023-01-23T19:42:21;60.64;;;28.72;;
14890;SDS011;7537;48.014;11.590;2023-01-23T19:47:50;56.40;;;27.03;;
14890;SDS011;7537;48.014;11.590;2023-01-23T19:53:17;59.39;;;29.36;;
14890;SDS011;7537;48.014;11.590;2023-01-23T19:58:48;55.69;;;28.61;;
14890;SDS011;7537;48.014;11.590;2023-01-23T20:04:16;47.88;;;26.94;;
14890;SDS011;7537;48.014;11.590;2023-01-23T20:09:46;48.22;;;24.32;;
14890;SDS011;7537;48.014;11.590;2023-01-23T20:15:13;44.38;;;23.11;;
14890;SDS011;7537;48.014;11.590;2023-01-23T20:20:41;43.66;;;25.89;;
14890;SDS011;7537;48.014;11.590;2023-01-23T20:26:08;29.97;;;17.29;;
14890;SDS011;7537;48.014;11.590;2023-01-23T20:31:36;47.21;;;25.33;;
14890;SDS011;7537;48.014;11.590;2023-01-23T20:37:03;47.44;;;23.43;;
14890;SDS011;7537;48.014;11.590;2023-01-23T20:42:32;50.01;;;25.23;;
14890;SDS011;7537;48.014;11.590;2023-01-23T20:48:00;52.69;;;26.30;;
14890;SDS011;7537;48.014;11.590;2023-01-23T20:53:27;49.76;;;25.64;;
14890;SDS011;7537;48.014;11.590;2023-01-23T20:58:58;51.21;;;25.24;;
14890;SDS011;7537;48.014;11.590;2023-01-23T21:04:26;46.79;;;25.41;;
14890;SDS011;7537;48.014;11.590;2023-01-23T21:10:06;48.20;;;26.64;;
14890;SDS011;7537;48.014;11.590;2023-01-23T21:15:35;45.37;;;28.39;;
14890;SDS011;7537;48.014;11.590;2023-01-23T21:21:04;45.65;;;24.47;;
14890;SDS011;7537;48.014;11.590;2023-01-23T21:26:32;40.78;;;23.35;;
14890;SDS011;7537;48.014;11.590;2023-01-23T21:31:59;47.85;;;26.44;;
14890;SDS011;7537;48.014;11.590;2023-01-23T21:37:27;55.38;;;28.03;;
14890;SDS011;7537;48.014;11.590;2023-01-23T21:42:55;44.54;;;27.16;;
14890;SDS011;7537;48.014;11.590;2023-01-23T21:48:23;42.69;;;24.73;;
14890;SDS011;7537;48.014;11.590;2023-01-23T21:53:51;41.44;;;22.47;;
14890;SDS011;7537;48.014;11.590;2023-01-23T21:59:21;45.32;;;24.46;;
14890;SDS011;7537;48.014;11.590;2023-01-23T22:04:49;51.85;;;26.62;;
14890;SDS011;7537;48.014;11.590;2023-01-23T22:10:16;43.38;;;25.30;;
14890;SDS011;7537;48.014;11.590;2023-01-23T22:15:45;23.97;;;15.30;;
14890;SDS011;7537;48.014;11.590;2023-01-23T22:21:14;32.32;;;20.57;;
14890;SDS011;7537;48.014;11.590;2023-01-23T22:26:41;36.61;;;21.62;;
14890;SDS011;7537;48.014;11.590;2023-01-23T22:32:08;36.87;;;22.04;;
14890;SDS011;7537;48.014;11.590;2023-01-23T22:37:35;39.52;;;22.88;;
14890;SDS011;7537;48.014;11.590;2023-01-23T22:43:03;38.31;;;21.87;;
14890;SDS011;7537;48.014;11.590;2023-01-23T22:48:31;51.61;;;23.89;;
14890;SDS011;7537;48.014;11.590;2023-01-23T22:54:00;41.09;;;22.96;;
14890;SDS011;7537;48.014;11.590;2023-01-23T22:59:31;40.58;;;22.94;;
14890;SDS011;7537;48.014;11.590;2023-01-23T23:04:58;42.21;;;23.37;;
14890;SDS011;7537;48.014;11.590;2023-01-23T23:10:26;38.76;;;18.81;;
14890;SDS011;7537;48.014;11.590;2023-01-23T23:15:53;45.69;;;23.30;;
14890;SDS011;7537;48.014;11.590;2023-01-23T23:21:21;44.83;;;23.06;;
14890;SDS011;7537;48.014;11.590;2023-01-23T23:26:50;45.54;;;23.69;;
14890;SDS011;7537;48.014;11.590;2023-01-23T23:32:18;56.06;;;26.69;;
14890;SDS011;7537;48.014;11.590;2023-01-23T23:37:45;36.04;;;17.76;;
14890;SDS011;7537;48.014;11.590;2023-01-23T23:43:12;55.64;;;25.26;;
14890;SDS011;7537;48.014;11.590;2023-01-23T23:48:40;35.89;;;21.14;;
14890;SDS011;7537;48.014;11.590;2023-01-23T23:54:07;39.73;;;21.35;;
14890;SDS011;7537;48.014;11.590;2023-01-23T23:59:39;36.59;;;21.20;;
